sensor_id;sensor_type;location;lat;lon;timestamp;pressure;altitude;pressure_sealevel;temperature;humidity
65010;BME280;51556;50.002;22.014;2022-08-27T00:01:30;98819.19;;;17.96;65.25
65010;BME280;51556;50.002;22.014;2022-08-27T00:03:56;98818.29;;;17.93;65.22
65010;BME280;51556;50.002;22.014;2022-08-27T00:06:23;98821.04;;;17.92;65.32
65010;BME280;51556;50.002;22.014;2022-08-27T00:08:50;98817.92;;;17.90;65.20
65010;BME280;51556;50.002;22.014;2022-08-27T00:11:17;98815.73;;;17.88;65.24
65010;BME280;51556;50.002;22.014;2022-08-27T00:13:45;98819.01;;;17.85;65.47
65010;BME280;51556;50.002;22.014;2022-08-27T00:16:12;98820.20;;;17.80;65.49
65010;BME280;51556;50.002;22.014;2022-08-27T00:18:40;98822.19;;;17.77;65.62
65010;BME280;51556;50.002;22.014;2022-08-27T00:21:07;98819.35;;;17.74;65.77
65010;BME280;51556;50.002;22.014;2022-08-27T00:23:34;98814.42;;;17.67;65.89
65010;BME280;51556;50.002;22.014;2022-08-27T00:26:00;98810.39;;;17.63;65.96
65010;BME280;51556;50.002;22.014;2022-08-27T00:28:28;98811.27;;;17.61;66.28
65010;BME280;51556;50.002;22.014;2022-08-27T00:30:54;98807.55;;;17.57;66.26
65010;BME280;51556;50.002;22.014;2022-08-27T00:33:20;98809.02;;;17.57;66.23
65010;BME280;51556;50.002;22.014;2022-08-27T00:35:46;98811.44;;;17.55;66.20
65010;BME280;51556;50.002;22.014;2022-08-27T00:38:13;98807.76;;;17.54;66.35
65010;BME280;51556;50.002;22.014;2022-08-27T00:40:39;98808.17;;;17.50;66.34
65010;BME280;51556;50.002;22.014;2022-08-27T00:43:05;98807.64;;;17.47;66.63
65010;BME280;51556;50.002;22.014;2022-08-27T00:45:35;98809.03;;;17.43;66.68
65010;BME280;51556;50.002;22.014;2022-08-27T00:48:01;98807.21;;;17.40;66.66
65010;BME280;51556;50.002;22.014;2022-08-27T00:50:42;98806.40;;;17.36;67.04
65010;BME280;51556;50.002;22.014;2022-08-27T00:53:10;98807.77;;;17.34;66.75
65010;BME280;51556;50.002;22.014;2022-08-27T00:55:45;98806.79;;;17.29;66.60
65010;BME280;51556;50.002;22.014;2022-08-27T01:00:57;98803.14;;;17.28;66.52
65010;BME280;51556;50.002;22.014;2022-08-27T01:03:24;98801.87;;;17.26;66.60
65010;BME280;51556;50.002;22.014;2022-08-27T01:05:54;98799.60;;;17.25;66.76
65010;BME280;51556;50.002;22.014;2022-08-27T01:08:25;98802.70;;;17.24;66.80
65010;BME280;51556;50.002;22.014;2022-08-27T01:10:54;98795.30;;;17.23;66.80
65010;BME280;51556;50.002;22.014;2022-08-27T01:13:22;98791.61;;;17.22;66.69
65010;BME280;51556;50.002;22.014;2022-08-27T01:15:49;98788.35;;;17.20;66.86
65010;BME280;51556;50.002;22.014;2022-08-27T01:18:15;98791.60;;;17.19;66.81
65010;BME280;51556;50.002;22.014;2022-08-27T01:23:19;98790.27;;;17.15;66.77
65010;BME280;51556;50.002;22.014;2022-08-27T01:25:47;98794.63;;;17.11;66.95
65010;BME280;51556;50.002;22.014;2022-08-27T01:28:13;98794.18;;;17.06;67.07
65010;BME280;51556;50.002;22.014;2022-08-27T01:30:39;98792.67;;;17.05;67.04
65010;BME280;51556;50.002;22.014;2022-08-27T01:33:10;98791.34;;;17.01;67.37
65010;BME280;51556;50.002;22.014;2022-08-27T01:35:40;98793.11;;;16.98;67.27
65010;BME280;51556;50.002;22.014;2022-08-27T01:38:05;98792.05;;;16.98;67.20
65010;BME280;51556;50.002;22.014;2022-08-27T01:40:31;98791.56;;;16.97;67.24
65010;BME280;51556;50.002;22.014;2022-08-27T01:42:58;98790.04;;;16.93;67.39
65010;BME280;51556;50.002;22.014;2022-08-27T01:45:27;98791.52;;;16.92;67.29
65010;BME280;51556;50.002;22.014;2022-08-27T01:47:53;98789.81;;;16.90;67.32
65010;BME280;51556;50.002;22.014;2022-08-27T01:50:26;98792.35;;;16.90;67.52
65010;BME280;51556;50.002;22.014;2022-08-27T01:52:53;98793.81;;;16.89;67.35
65010;BME280;51556;50.002;22.014;2022-08-27T01:55:23;98792.74;;;16.86;67.39
65010;BME280;51556;50.002;22.014;2022-08-27T01:57:50;98793.66;;;16.83;67.25
65010;BME280;51556;50.002;22.014;2022-08-27T02:00:20;98791.34;;;16.83;67.33
65010;BME280;51556;50.002;22.014;2022-08-27T02:02:46;98790.37;;;16.81;67.27
65010;BME280;51556;50.002;22.014;2022-08-27T02:05:12;98785.92;;;16.78;67.45
65010;BME280;51556;50.002;22.014;2022-08-27T02:07:39;98787.61;;;16.77;67.43
65010;BME280;51556;50.002;22.014;2022-08-27T02:10:07;98788.19;;;16.73;67.57
65010;BME280;51556;50.002;22.014;2022-08-27T02:12:33;98786.56;;;16.70;67.44
65010;BME280;51556;50.002;22.014;2022-08-27T02:14:59;98783.30;;;16.69;67.80
65010;BME280;51556;50.002;22.014;2022-08-27T02:17:24;98783.12;;;16.69;67.79
65010;BME280;51556;50.002;22.014;2022-08-27T02:19:50;98787.23;;;16.68;67.62
65010;BME280;51556;50.002;22.014;2022-08-27T02:22:15;98787.46;;;16.68;67.58
65010;BME280;51556;50.002;22.014;2022-08-27T02:24:41;98789.02;;;16.65;67.90
65010;BME280;51556;50.002;22.014;2022-08-27T02:27:07;98784.86;;;16.63;67.94
65010;BME280;51556;50.002;22.014;2022-08-27T02:29:33;98780.28;;;16.62;67.96
65010;BME280;51556;50.002;22.014;2022-08-27T02:31:59;98782.73;;;16.60;67.81
65010;BME280;51556;50.002;22.014;2022-08-27T02:34:26;98783.85;;;16.59;68.04
65010;BME280;51556;50.002;22.014;2022-08-27T02:36:52;98778.98;;;16.54;68.25
65010;BME280;51556;50.002;22.014;2022-08-27T02:39:18;98777.27;;;16.53;68.24
65010;BME280;51556;50.002;22.014;2022-08-27T02:41:44;98780.51;;;16.55;68.24
65010;BME280;51556;50.002;22.014;2022-08-27T02:44:10;98780.18;;;16.55;68.10
65010;BME280;51556;50.002;22.014;2022-08-27T02:46:36;98777.81;;;16.53;68.04
65010;BME280;51556;50.002;22.014;2022-08-27T02:49:03;98780.73;;;16.49;68.14
65010;BME280;51556;50.002;22.014;2022-08-27T02:51:29;98782.73;;;16.45;68.28
65010;BME280;51556;50.002;22.014;2022-08-27T02:53:55;98779.54;;;16.38;68.30
65010;BME280;51556;50.002;22.014;2022-08-27T02:56:20;98781.92;;;16.31;68.43
65010;BME280;51556;50.002;22.014;2022-08-27T02:58:46;98786.77;;;16.28;68.88
65010;BME280;51556;50.002;22.014;2022-08-27T03:01:11;98784.17;;;16.23;68.80
65010;BME280;51556;50.002;22.014;2022-08-27T03:03:36;98780.62;;;16.20;69.09
65010;BME280;51556;50.002;22.014;2022-08-27T03:06:03;98779.45;;;16.19;69.11
65010;BME280;51556;50.002;22.014;2022-08-27T03:08:29;98775.79;;;16.18;69.05
65010;BME280;51556;50.002;22.014;2022-08-27T03:10:55;98777.60;;;16.17;69.18
65010;BME280;51556;50.002;22.014;2022-08-27T03:13:21;98775.70;;;16.16;69.10
65010;BME280;51556;50.002;22.014;2022-08-27T03:15:47;98777.34;;;16.16;68.89
65010;BME280;51556;50.002;22.014;2022-08-27T03:18:13;98779.48;;;16.12;69.19
65010;BME280;51556;50.002;22.014;2022-08-27T03:20:51;98786.14;;;16.11;69.05
65010;BME280;51556;50.002;22.014;2022-08-27T03:23:20;98787.04;;;16.11;69.13
65010;BME280;51556;50.002;22.014;2022-08-27T03:25:52;98789.96;;;16.09;69.00
65010;BME280;51556;50.002;22.014;2022-08-27T03:28:20;98787.90;;;16.11;69.06
65010;BME280;51556;50.002;22.014;2022-08-27T03:30:48;98789.95;;;16.09;69.00
65010;BME280;51556;50.002;22.014;2022-08-27T03:33:17;98794.76;;;16.09;68.91
65010;BME280;51556;50.002;22.014;2022-08-27T03:35:44;98795.50;;;16.09;69.09
65010;BME280;51556;50.002;22.014;2022-08-27T03:38:11;98796.10;;;16.07;69.09
65010;BME280;51556;50.002;22.014;2022-08-27T03:40:36;98790.84;;;16.03;69.34
65010;BME280;51556;50.002;22.014;2022-08-27T03:43:02;98789.23;;;16.00;69.30
65010;BME280;51556;50.002;22.014;2022-08-27T03:45:28;98786.61;;;15.99;69.13
65010;BME280;51556;50.002;22.014;2022-08-27T03:47:54;98780.96;;;15.96;69.33
65010;BME280;51556;50.002;22.014;2022-08-27T03:50:20;98781.56;;;15.91;69.19
65010;BME280;51556;50.002;22.014;2022-08-27T03:52:45;98780.89;;;15.87;69.26
65010;BME280;51556;50.002;22.014;2022-08-27T03:55:12;98783.11;;;15.86;69.65
65010;BME280;51556;50.002;22.014;2022-08-27T03:57:37;98783.00;;;15.85;69.69
65010;BME280;51556;50.002;22.014;2022-08-27T04:00:06;98786.04;;;15.84;69.53
65010;BME280;51556;50.002;22.014;2022-08-27T04:02:34;98783.16;;;15.85;70.00
65010;BME280;51556;50.002;22.014;2022-08-27T04:05:00;98785.00;;;15.84;69.74
65010;BME280;51556;50.002;22.014;2022-08-27T04:07:25;98783.48;;;15.83;70.18
65010;BME280;51556;50.002;22.014;2022-08-27T04:09:51;98786.73;;;15.82;69.95
65010;BME280;51556;50.002;22.014;2022-08-27T04:12:16;98784.33;;;15.83;69.95
65010;BME280;51556;50.002;22.014;2022-08-27T04:14:42;98783.33;;;15.85;70.19
65010;BME280;51556;50.002;22.014;2022-08-27T04:17:07;98789.00;;;15.85;70.09
65010;BME280;51556;50.002;22.014;2022-08-27T04:19:33;98787.86;;;15.87;69.89
65010;BME280;51556;50.002;22.014;2022-08-27T04:22:04;98781.69;;;15.89;69.78
65010;BME280;51556;50.002;22.014;2022-08-27T04:24:32;98783.40;;;15.90;70.05
65010;BME280;51556;50.002;22.014;2022-08-27T04:26:59;98788.81;;;15.92;69.85
65010;BME280;51556;50.002;22.014;2022-08-27T04:29:26;98783.11;;;15.92;69.74
65010;BME280;51556;50.002;22.014;2022-08-27T04:31:51;98787.01;;;15.92;69.69
65010;BME280;51556;50.002;22.014;2022-08-27T04:34:17;98784.97;;;15.94;69.52
65010;BME280;51556;50.002;22.014;2022-08-27T04:36:43;98787.30;;;15.96;69.63
65010;BME280;51556;50.002;22.014;2022-08-27T04:39:11;98785.89;;;15.96;69.65
65010;BME280;51556;50.002;22.014;2022-08-27T04:41:37;98784.00;;;15.95;70.02
65010;BME280;51556;50.002;22.014;2022-08-27T04:44:05;98787.34;;;15.96;69.81
65010;BME280;51556;50.002;22.014;2022-08-27T04:46:33;98788.65;;;15.97;69.92
65010;BME280;51556;50.002;22.014;2022-08-27T04:49:03;98787.02;;;16.01;70.16
65010;BME280;51556;50.002;22.014;2022-08-27T04:51:29;98786.47;;;16.01;69.71
65010;BME280;51556;50.002;22.014;2022-08-27T04:53:55;98784.39;;;16.00;69.93
65010;BME280;51556;50.002;22.014;2022-08-27T04:56:22;98782.19;;;16.05;69.85
65010;BME280;51556;50.002;22.014;2022-08-27T04:58:49;98779.33;;;16.12;69.91
65010;BME280;51556;50.002;22.014;2022-08-27T05:01:17;98776.30;;;16.15;69.81
65010;BME280;51556;50.002;22.014;2022-08-27T05:03:43;98776.20;;;16.20;69.86
65010;BME280;51556;50.002;22.014;2022-08-27T05:06:09;98774.77;;;16.23;69.92
65010;BME280;51556;50.002;22.014;2022-08-27T05:08:34;98772.70;;;16.25;70.05
65010;BME280;51556;50.002;22.014;2022-08-27T05:11:01;98771.08;;;16.29;69.95
65010;BME280;51556;50.002;22.014;2022-08-27T05:13:27;98773.00;;;16.35;70.06
65010;BME280;51556;50.002;22.014;2022-08-27T05:16:01;98776.68;;;16.42;69.83
65010;BME280;51556;50.002;22.014;2022-08-27T05:18:27;98774.09;;;16.50;69.92
65010;BME280;51556;50.002;22.014;2022-08-27T05:20:54;98776.20;;;16.56;69.72
65010;BME280;51556;50.002;22.014;2022-08-27T05:23:20;98777.63;;;16.62;69.76
65010;BME280;51556;50.002;22.014;2022-08-27T05:25:47;98783.37;;;16.68;69.74
65010;BME280;51556;50.002;22.014;2022-08-27T05:28:17;98789.24;;;16.70;69.80
65010;BME280;51556;50.002;22.014;2022-08-27T05:30:47;98788.77;;;16.72;70.00
65010;BME280;51556;50.002;22.014;2022-08-27T05:33:16;98787.16;;;16.76;70.07
65010;BME280;51556;50.002;22.014;2022-08-27T05:35:44;98786.15;;;16.81;70.09
65010;BME280;51556;50.002;22.014;2022-08-27T05:38:11;98786.65;;;16.87;70.11
65010;BME280;51556;50.002;22.014;2022-08-27T05:40:38;98790.68;;;16.94;70.28
65010;BME280;51556;50.002;22.014;2022-08-27T05:43:05;98790.82;;;16.97;70.23
65010;BME280;51556;50.002;22.014;2022-08-27T05:45:32;98787.52;;;17.08;70.20
65010;BME280;51556;50.002;22.014;2022-08-27T05:48:01;98792.59;;;17.20;70.26
65010;BME280;51556;50.002;22.014;2022-08-27T05:50:27;98791.26;;;17.31;70.21
65010;BME280;51556;50.002;22.014;2022-08-27T05:52:52;98792.75;;;17.41;70.25
65010;BME280;51556;50.002;22.014;2022-08-27T05:55:18;98787.13;;;17.48;70.03
65010;BME280;51556;50.002;22.014;2022-08-27T05:57:47;98788.08;;;17.56;70.03
65010;BME280;51556;50.002;22.014;2022-08-27T06:00:13;98790.13;;;17.66;70.01
65010;BME280;51556;50.002;22.014;2022-08-27T06:02:57;98790.80;;;17.72;69.97
65010;BME280;51556;50.002;22.014;2022-08-27T06:05:23;98792.64;;;17.80;69.84
65010;BME280;51556;50.002;22.014;2022-08-27T06:07:49;98792.09;;;17.80;69.96
65010;BME280;51556;50.002;22.014;2022-08-27T06:10:14;98791.90;;;17.82;69.94
65010;BME280;51556;50.002;22.014;2022-08-27T06:12:40;98787.46;;;17.90;69.95
65010;BME280;51556;50.002;22.014;2022-08-27T06:15:06;98786.41;;;17.99;69.89
65010;BME280;51556;50.002;22.014;2022-08-27T06:17:31;98785.97;;;18.06;69.64
65010;BME280;51556;50.002;22.014;2022-08-27T06:19:57;98779.65;;;18.15;69.48
65010;BME280;51556;50.002;22.014;2022-08-27T06:22:23;98778.52;;;18.26;69.32
65010;BME280;51556;50.002;22.014;2022-08-27T06:24:48;98779.77;;;18.37;69.26
65010;BME280;51556;50.002;22.014;2022-08-27T06:27:16;98781.77;;;18.47;69.03
65010;BME280;51556;50.002;22.014;2022-08-27T06:29:43;98781.25;;;18.60;69.05
65010;BME280;51556;50.002;22.014;2022-08-27T06:32:10;98782.17;;;18.71;68.69
65010;BME280;51556;50.002;22.014;2022-08-27T06:34:37;98782.66;;;18.79;68.48
65010;BME280;51556;50.002;22.014;2022-08-27T06:37:03;98781.31;;;18.89;68.43
65010;BME280;51556;50.002;22.014;2022-08-27T06:39:29;98786.55;;;19.00;68.21
65010;BME280;51556;50.002;22.014;2022-08-27T06:41:56;98786.17;;;19.11;67.74
65010;BME280;51556;50.002;22.014;2022-08-27T06:44:21;98784.67;;;19.22;67.55
65010;BME280;51556;50.002;22.014;2022-08-27T06:46:49;98785.61;;;19.34;67.47
65010;BME280;51556;50.002;22.014;2022-08-27T06:49:26;98785.57;;;19.45;67.13
65010;BME280;51556;50.002;22.014;2022-08-27T06:51:55;98790.03;;;19.53;67.11
65010;BME280;51556;50.002;22.014;2022-08-27T06:54:20;98792.95;;;19.60;67.05
65010;BME280;51556;50.002;22.014;2022-08-27T06:56:48;98789.88;;;19.67;66.96
65010;BME280;51556;50.002;22.014;2022-08-27T06:59:17;98786.75;;;19.76;66.92
65010;BME280;51556;50.002;22.014;2022-08-27T07:01:47;98790.20;;;19.90;66.68
65010;BME280;51556;50.002;22.014;2022-08-27T07:04:20;98790.60;;;20.04;66.30
65010;BME280;51556;50.002;22.014;2022-08-27T07:06:47;98790.98;;;20.13;66.05
65010;BME280;51556;50.002;22.014;2022-08-27T07:09:13;98788.34;;;20.20;65.62
65010;BME280;51556;50.002;22.014;2022-08-27T07:11:38;98782.98;;;20.29;65.46
65010;BME280;51556;50.002;22.014;2022-08-27T07:14:06;98780.39;;;20.45;65.22
65010;BME280;51556;50.002;22.014;2022-08-27T07:16:32;98782.45;;;20.58;64.50
65010;BME280;51556;50.002;22.014;2022-08-27T07:19:00;98777.38;;;20.69;64.07
65010;BME280;51556;50.002;22.014;2022-08-27T07:21:27;98776.43;;;20.79;63.55
65010;BME280;51556;50.002;22.014;2022-08-27T07:23:53;98770.50;;;20.90;63.42
65010;BME280;51556;50.002;22.014;2022-08-27T07:26:23;98775.44;;;21.08;62.97
65010;BME280;51556;50.002;22.014;2022-08-27T07:28:50;98773.02;;;21.22;62.46
65010;BME280;51556;50.002;22.014;2022-08-27T07:31:21;98776.04;;;21.37;62.00
65010;BME280;51556;50.002;22.014;2022-08-27T07:33:47;98776.34;;;21.47;61.60
65010;BME280;51556;50.002;22.014;2022-08-27T07:36:15;98774.62;;;21.54;61.24
65010;BME280;51556;50.002;22.014;2022-08-27T07:38:44;98777.58;;;21.64;60.86
65010;BME280;51556;50.002;22.014;2022-08-27T07:41:11;98779.74;;;21.77;60.43
65010;BME280;51556;50.002;22.014;2022-08-27T07:43:37;98771.72;;;21.90;60.18
65010;BME280;51556;50.002;22.014;2022-08-27T07:46:25;98774.99;;;22.05;59.79
65010;BME280;51556;50.002;22.014;2022-08-27T07:48:51;98770.38;;;22.14;59.31
65010;BME280;51556;50.002;22.014;2022-08-27T07:51:19;98766.40;;;22.25;58.98
65010;BME280;51556;50.002;22.014;2022-08-27T07:53:46;98767.90;;;22.36;58.55
65010;BME280;51556;50.002;22.014;2022-08-27T07:56:12;98768.83;;;22.49;58.41
65010;BME280;51556;50.002;22.014;2022-08-27T07:58:38;98767.40;;;22.61;58.80
65010;BME280;51556;50.002;22.014;2022-08-27T08:01:04;98771.67;;;22.75;58.70
65010;BME280;51556;50.002;22.014;2022-08-27T08:03:30;98768.38;;;22.89;58.62
65010;BME280;51556;50.002;22.014;2022-08-27T08:06:00;98769.51;;;23.02;58.46
65010;BME280;51556;50.002;22.014;2022-08-27T08:08:26;98771.20;;;23.14;57.98
65010;BME280;51556;50.002;22.014;2022-08-27T08:10:56;98768.70;;;23.22;57.82
65010;BME280;51556;50.002;22.014;2022-08-27T08:13:22;98772.90;;;23.31;57.57
65010;BME280;51556;50.002;22.014;2022-08-27T08:15:47;98764.92;;;23.43;57.62
65010;BME280;51556;50.002;22.014;2022-08-27T08:18:13;98766.34;;;23.55;57.65
65010;BME280;51556;50.002;22.014;2022-08-27T08:20:39;98768.28;;;23.68;57.43
65010;BME280;51556;50.002;22.014;2022-08-27T08:23:05;98769.92;;;23.78;56.83
65010;BME280;51556;50.002;22.014;2022-08-27T08:25:30;98766.12;;;23.88;57.23
65010;BME280;51556;50.002;22.014;2022-08-27T08:27:56;98768.46;;;24.00;56.84
65010;BME280;51556;50.002;22.014;2022-08-27T08:30:22;98766.95;;;24.11;56.26
65010;BME280;51556;50.002;22.014;2022-08-27T08:32:48;98767.20;;;24.22;56.41
65010;BME280;51556;50.002;22.014;2022-08-27T08:35:14;98766.59;;;24.32;56.59
65010;BME280;51556;50.002;22.014;2022-08-27T08:37:44;98766.16;;;24.45;56.29
65010;BME280;51556;50.002;22.014;2022-08-27T08:40:23;98766.27;;;24.59;55.99
65010;BME280;51556;50.002;22.014;2022-08-27T08:42:53;98771.21;;;24.74;55.80
65010;BME280;51556;50.002;22.014;2022-08-27T08:45:25;98766.46;;;24.84;55.12
65010;BME280;51556;50.002;22.014;2022-08-27T08:47:52;98766.61;;;24.94;54.92
65010;BME280;51556;50.002;22.014;2022-08-27T08:56:11;98764.68;;;25.35;53.96
65010;BME280;51556;50.002;22.014;2022-08-27T09:01:18;98768.43;;;25.65;53.17
65010;BME280;51556;50.002;22.014;2022-08-27T09:03:54;98763.23;;;25.78;52.25
65010;BME280;51556;50.002;22.014;2022-08-27T09:09:20;98761.55;;;26.06;52.16
65010;BME280;51556;50.002;22.014;2022-08-27T09:17:05;98763.34;;;26.51;49.56
65010;BME280;51556;50.002;22.014;2022-08-27T09:19:30;98756.43;;;26.66;48.81
65010;BME280;51556;50.002;22.014;2022-08-27T09:27:24;98767.12;;;27.13;48.02
65010;BME280;51556;50.002;22.014;2022-08-27T09:29:52;98767.34;;;27.29;47.66
65010;BME280;51556;50.002;22.014;2022-08-27T09:32:31;98763.27;;;27.42;46.91
65010;BME280;51556;50.002;22.014;2022-08-27T09:35:01;98762.69;;;27.56;45.57
65010;BME280;51556;50.002;22.014;2022-08-27T09:37:44;98758.89;;;27.70;45.76
65010;BME280;51556;50.002;22.014;2022-08-27T09:42:44;98754.30;;;27.97;43.57
65010;BME280;51556;50.002;22.014;2022-08-27T09:45:28;98757.00;;;28.11;41.58
65010;BME280;51556;50.002;22.014;2022-08-27T09:50:45;98746.41;;;28.42;41.50
65010;BME280;51556;50.002;22.014;2022-08-27T09:53:20;98746.73;;;28.57;41.32
65010;BME280;51556;50.002;22.014;2022-08-27T09:56:08;98746.75;;;28.75;40.24
65010;BME280;51556;50.002;22.014;2022-08-27T09:58:52;98749.87;;;28.95;39.10
65010;BME280;51556;50.002;22.014;2022-08-27T10:01:24;98749.67;;;29.10;36.74
65010;BME280;51556;50.002;22.014;2022-08-27T10:04:03;98747.91;;;29.23;37.29
65010;BME280;51556;50.002;22.014;2022-08-27T10:06:30;98745.64;;;29.35;37.47
65010;BME280;51556;50.002;22.014;2022-08-27T10:09:02;98747.03;;;29.46;36.90
65010;BME280;51556;50.002;22.014;2022-08-27T10:11:38;98744.73;;;29.55;37.64
65010;BME280;51556;50.002;22.014;2022-08-27T10:14:13;98743.77;;;29.68;37.18
65010;BME280;51556;50.002;22.014;2022-08-27T10:19:55;98740.52;;;29.89;35.22
65010;BME280;51556;50.002;22.014;2022-08-27T10:25:31;98743.12;;;30.12;35.77
65010;BME280;51556;50.002;22.014;2022-08-27T10:33:49;98742.59;;;30.54;34.59
65010;BME280;51556;50.002;22.014;2022-08-27T10:39:14;98738.93;;;30.86;34.20
65010;BME280;51556;50.002;22.014;2022-08-27T10:47:35;98744.65;;;31.17;33.08
65010;BME280;51556;50.002;22.014;2022-08-27T10:52:36;98736.70;;;31.38;32.80
65010;BME280;51556;50.002;22.014;2022-08-27T10:55:52;98732.18;;;31.47;32.50
65010;BME280;51556;50.002;22.014;2022-08-27T10:59:17;98731.27;;;31.60;32.60
65010;BME280;51556;50.002;22.014;2022-08-27T11:04:09;98727.70;;;31.87;31.58
65010;BME280;51556;50.002;22.014;2022-08-27T11:06:42;98723.45;;;31.98;30.56
65010;BME280;51556;50.002;22.014;2022-08-27T11:09:20;98725.16;;;32.03;30.42
65010;BME280;51556;50.002;22.014;2022-08-27T11:11:53;98728.58;;;32.14;30.39
65010;BME280;51556;50.002;22.014;2022-08-27T11:17:05;98728.52;;;32.17;29.02
65010;BME280;51556;50.002;22.014;2022-08-27T11:22:40;98725.42;;;32.14;28.66
65010;BME280;51556;50.002;22.014;2022-08-27T11:25:32;98726.41;;;32.09;28.88
65010;BME280;51556;50.002;22.014;2022-08-27T11:28:01;98724.80;;;32.18;29.67
65010;BME280;51556;50.002;22.014;2022-08-27T11:30:47;98727.72;;;32.24;29.14
65010;BME280;51556;50.002;22.014;2022-08-27T11:33:22;98723.25;;;32.23;29.52
65010;BME280;51556;50.002;22.014;2022-08-27T11:38:28;98727.23;;;32.04;28.75
65010;BME280;51556;50.002;22.014;2022-08-27T11:43:33;98726.02;;;31.73;29.37
65010;BME280;51556;50.002;22.014;2022-08-27T11:46:02;98721.43;;;31.61;29.15
65010;BME280;51556;50.002;22.014;2022-08-27T11:48:35;98720.13;;;31.59;29.57
65010;BME280;51556;50.002;22.014;2022-08-27T11:51:06;98718.45;;;31.69;29.85
65010;BME280;51556;50.002;22.014;2022-08-27T11:53:35;98717.07;;;31.80;28.65
65010;BME280;51556;50.002;22.014;2022-08-27T11:56:33;98711.14;;;31.83;28.75
65010;BME280;51556;50.002;22.014;2022-08-27T11:59:27;98707.66;;;31.98;29.32
65010;BME280;51556;50.002;22.014;2022-08-27T12:02:11;98707.69;;;32.19;29.64
65010;BME280;51556;50.002;22.014;2022-08-27T12:04:43;98702.31;;;32.39;28.92
65010;BME280;51556;50.002;22.014;2022-08-27T12:12:20;98705.97;;;32.11;28.37
65010;BME280;51556;50.002;22.014;2022-08-27T12:15:04;98714.80;;;32.18;27.97
65010;BME280;51556;50.002;22.014;2022-08-27T12:17:41;98718.52;;;32.25;27.21
65010;BME280;51556;50.002;22.014;2022-08-27T12:26:12;98711.61;;;32.73;27.60
65010;BME280;51556;50.002;22.014;2022-08-27T12:28:39;98714.16;;;32.86;26.89
65010;BME280;51556;50.002;22.014;2022-08-27T12:31:06;98714.23;;;32.70;25.93
65010;BME280;51556;50.002;22.014;2022-08-27T12:33:38;98719.40;;;32.45;26.42
65010;BME280;51556;50.002;22.014;2022-08-27T12:36:19;98720.13;;;32.30;26.83
65010;BME280;51556;50.002;22.014;2022-08-27T12:38:52;98724.01;;;32.15;27.62
65010;BME280;51556;50.002;22.014;2022-08-27T12:41:26;98719.31;;;32.04;27.23
65010;BME280;51556;50.002;22.014;2022-08-27T12:44:28;98718.36;;;31.94;27.66
65010;BME280;51556;50.002;22.014;2022-08-27T12:47:04;98722.64;;;31.77;27.77
65010;BME280;51556;50.002;22.014;2022-08-27T12:49:54;98717.40;;;31.59;28.31
65010;BME280;51556;50.002;22.014;2022-08-27T12:52:45;98711.73;;;31.65;28.61
65010;BME280;51556;50.002;22.014;2022-08-27T12:55:38;98713.85;;;31.82;28.00
65010;BME280;51556;50.002;22.014;2022-08-27T13:03:55;98711.58;;;32.28;26.84
65010;BME280;51556;50.002;22.014;2022-08-27T13:06:27;98705.48;;;32.44;27.99
65010;BME280;51556;50.002;22.014;2022-08-27T13:08:58;98703.74;;;32.68;27.74
65010;BME280;51556;50.002;22.014;2022-08-27T13:11:28;98701.73;;;32.89;27.26
65010;BME280;51556;50.002;22.014;2022-08-27T13:14:13;98704.45;;;33.09;27.04
65010;BME280;51556;50.002;22.014;2022-08-27T13:16:51;98706.85;;;33.28;26.74
65010;BME280;51556;50.002;22.014;2022-08-27T13:19:24;98701.91;;;33.43;25.76
65010;BME280;51556;50.002;22.014;2022-08-27T13:21:50;98702.32;;;33.56;25.72
65010;BME280;51556;50.002;22.014;2022-08-27T13:24:31;98706.52;;;33.67;24.84
65010;BME280;51556;50.002;22.014;2022-08-27T13:26:58;98700.83;;;33.65;24.65
65010;BME280;51556;50.002;22.014;2022-08-27T13:29:26;98700.05;;;33.63;24.40
65010;BME280;51556;50.002;22.014;2022-08-27T13:31:53;98701.66;;;33.72;25.15
65010;BME280;51556;50.002;22.014;2022-08-27T13:34:24;98695.58;;;33.83;24.57
65010;BME280;51556;50.002;22.014;2022-08-27T13:39:18;98700.25;;;34.10;23.88
65010;BME280;51556;50.002;22.014;2022-08-27T13:41:46;98699.45;;;34.17;23.45
65010;BME280;51556;50.002;22.014;2022-08-27T13:44:20;98705.40;;;34.35;24.06
65010;BME280;51556;50.002;22.014;2022-08-27T13:46:51;98703.25;;;34.64;23.89
65010;BME280;51556;50.002;22.014;2022-08-27T13:49:21;98703.52;;;34.97;23.32
65010;BME280;51556;50.002;22.014;2022-08-27T13:51:48;98703.98;;;35.16;23.09
65010;BME280;51556;50.002;22.014;2022-08-27T13:54:17;98706.10;;;35.27;22.35
65010;BME280;51556;50.002;22.014;2022-08-27T14:04:26;98699.35;;;35.66;22.48
65010;BME280;51556;50.002;22.014;2022-08-27T14:06:52;98695.57;;;36.02;22.27
65010;BME280;51556;50.002;22.014;2022-08-27T14:09:26;98700.36;;;36.37;21.63
65010;BME280;51556;50.002;22.014;2022-08-27T14:12:04;98694.15;;;36.57;21.50
65010;BME280;51556;50.002;22.014;2022-08-27T14:14:38;98692.00;;;36.86;20.75
65010;BME280;51556;50.002;22.014;2022-08-27T14:17:06;98690.52;;;37.16;20.54
65010;BME280;51556;50.002;22.014;2022-08-27T14:19:44;98687.25;;;37.42;20.88
65010;BME280;51556;50.002;22.014;2022-08-27T14:22:09;98691.08;;;37.73;20.47
65010;BME280;51556;50.002;22.014;2022-08-27T14:24:35;98695.09;;;37.92;19.89
65010;BME280;51556;50.002;22.014;2022-08-27T14:27:08;98689.31;;;38.14;19.29
65010;BME280;51556;50.002;22.014;2022-08-27T14:29:34;98694.14;;;38.32;19.14
65010;BME280;51556;50.002;22.014;2022-08-27T14:32:00;98690.67;;;38.51;19.43
65010;BME280;51556;50.002;22.014;2022-08-27T14:34:26;98688.59;;;38.68;19.56
65010;BME280;51556;50.002;22.014;2022-08-27T14:36:51;98685.98;;;38.86;19.03
65010;BME280;51556;50.002;22.014;2022-08-27T14:39:19;98684.16;;;38.77;18.28